This is the latest recevied weather packets stored in our database for station/object PE1RXF-13. If no packets are shown the sender has not sent any weather packets the latest 10 day(s).
| Time | Temp. | Humidity | Pressure | Rain* | Wind** | Luminosity | Snow |
|---|---|---|---|---|---|---|---|
| 1777700655 | 12.22° C | 63% | 1018.1 hPa | 0 mm | - | 26 W/m² | - |
| 1777697057 | 8.89° C | 76% | 1018.1 hPa | 0 mm | - | 7 W/m² | - |
| 1777697056 | 8.89° C | 76% | 1018.1 hPa | 0 mm | - | 7 W/m² | - |
| 1777695255 | 8.89° C | 75% | 1018.2 hPa | 0 mm | - | 2 W/m² | - |
| 1777693457 | 9.44° C | 70% | 1018.4 hPa | 0 mm | - | 0 W/m² | - |
| 1777693456 | 9.44° C | 70% | 1018.4 hPa | 0 mm | - | 0 W/m² | - |
| 1777691657 | 9.44° C | 70% | 1018.5 hPa | 0 mm | - | 0 W/m² | - |
| 1777691656 | 9.44° C | 70% | 1018.5 hPa | 0 mm | - | 0 W/m² | - |
| 1777689855 | 10.56° C | 66% | 1018.7 hPa | 0 mm | - | 0 W/m² | - |
| 1777688055 | 10.56° C | 66% | 1019 hPa | 0 mm | - | 0 W/m² | - |
| 1777680855 | 12.22° C | 61% | 1020.2 hPa | 0 mm | - | 0 W/m² | - |
| 1777679055 | 11.67° C | 64% | 1020.3 hPa | 0 mm | - | 0 W/m² | - |
| 1777677256 | 12.78° C | 57% | 1020.5 hPa | 0 mm | - | 0 W/m² | - |
| 1777675455 | 13.89° C | 53% | 1020.6 hPa | 0 mm | - | 0 W/m² | - |
| 1777673655 | 14.44° C | 51% | 1020.6 hPa | 0 mm | - | 0 W/m² | - |
| 1777671857 | 14.44° C | 50% | 1020.8 hPa | 0 mm | - | 0 W/m² | - |
| 1777670055 | 15.56° C | 45% | 1020.8 hPa | 0 mm | - | 0 W/m² | - |
| 1777668255 | 16.11° C | 44% | 1020.9 hPa | 0 mm | - | 0 W/m² | - |
| 1777666455 | 17.22° C | 42% | 1021.1 hPa | 0 mm | - | 0 W/m² | - |
| 1777664655 | 18.33° C | 36% | 1021.2 hPa | 0 mm | - | 0 W/m² | - |
| 1777659255 | 21.67° C | 28% | 1021.2 hPa | 0 mm | - | 11 W/m² | - |
| 1777657455 | 23.33° C | 25% | 1021 hPa | 0 mm | - | 18 W/m² | - |
| 1777655656 | 25° C | 24% | 1021.2 hPa | 0 mm | - | 62 W/m² | - |
| 1777653855 | 25° C | 23% | 1021.5 hPa | 0 mm | - | 90 W/m² | - |
| 1777650255 | 25° C | 22% | 1022.2 hPa | 0 mm | - | 152 W/m² | - |
* Rain latest hour (hover to see other rain measurements)
** Current wind speed in m/s (hover to see current wind gust speed)